createdAt,value
2022-09-23T00:00:43.099Z,87.40
2022-09-23T00:03:10.496Z,87.50
2022-09-23T00:05:37.508Z,87.50
2022-09-23T00:08:07.729Z,87.50
2022-09-23T00:10:37.333Z,87.50
2022-09-23T00:13:05.209Z,87.60
2022-09-23T00:15:33.646Z,87.70
2022-09-23T00:17:59.861Z,87.80
2022-09-23T00:20:26.004Z,87.70
2022-09-23T00:22:52.670Z,88.40
2022-09-23T00:25:18.772Z,87.90
2022-09-23T00:27:44.925Z,88.00
2022-09-23T00:30:11.288Z,88.30
2022-09-23T00:32:37.859Z,88.20
2022-09-23T00:35:04.948Z,88.10
2022-09-23T00:37:31.362Z,88.10
2022-09-23T00:39:59.777Z,88.30
2022-09-23T00:42:26.577Z,88.40
2022-09-23T00:44:58.173Z,88.70
2022-09-23T00:47:29.150Z,89.00
2022-09-23T00:50:17.844Z,88.90
2022-09-23T00:52:43.900Z,88.50
2022-09-23T00:55:12.400Z,88.10
2022-09-23T00:57:39.461Z,88.00
2022-09-23T01:00:06.293Z,87.90
2022-09-23T01:02:32.758Z,87.70
2022-09-23T01:05:00.274Z,87.70
2022-09-23T01:07:26.505Z,87.70
2022-09-23T01:09:52.625Z,87.50
2022-09-23T01:12:37.347Z,87.40
2022-09-23T01:15:17.442Z,87.20
2022-09-23T01:17:58.842Z,87.10
2022-09-23T01:20:33.203Z,86.90
2022-09-23T01:23:02.028Z,86.80
2022-09-23T01:25:40.406Z,86.80
2022-09-23T01:28:39.117Z,86.70
2022-09-23T01:31:14.640Z,86.70
2022-09-23T01:33:56.029Z,86.60
2022-09-23T01:36:34.383Z,86.50
2022-09-23T01:39:03.387Z,86.40
2022-09-23T01:41:35.094Z,86.30
2022-09-23T01:44:09.975Z,86.20
2022-09-23T01:46:56.257Z,86.30
2022-09-23T01:49:31.981Z,86.20
2022-09-23T01:52:00.805Z,86.10
2022-09-23T01:54:38.179Z,86.00
2022-09-23T01:57:10.618Z,85.90
2022-09-23T01:59:42.844Z,86.30
2022-09-23T02:02:08.808Z,85.70
2022-09-23T02:04:38.972Z,85.60
2022-09-23T02:07:20.142Z,85.40
2022-09-23T02:09:50.100Z,85.40
2022-09-23T02:12:18.422Z,85.30
2022-09-23T02:14:53.491Z,85.30
2022-09-23T02:17:25.840Z,85.20
2022-09-23T02:20:00.848Z,85.10
2022-09-23T02:22:29.333Z,85.10
2022-09-23T02:24:56.602Z,85.00
2022-09-23T02:27:36.279Z,85.00
2022-09-23T02:30:19.774Z,84.90
2022-09-23T02:32:55.736Z,84.80
2022-09-23T02:35:24.851Z,84.70
2022-09-23T02:37:56.986Z,84.60
2022-09-23T02:40:43.266Z,84.60
2022-09-23T02:43:34.719Z,84.70
2022-09-23T02:46:03.993Z,84.80
2022-09-23T02:48:33.446Z,84.70
2022-09-23T02:51:01.876Z,84.60
2022-09-23T02:53:28.873Z,84.60
2022-09-23T02:55:54.918Z,84.50
2022-09-23T02:58:20.972Z,84.50
2022-09-23T03:00:56.535Z,84.50
2022-09-23T03:03:35.871Z,84.50
2022-09-23T03:06:07.222Z,84.50
2022-09-23T03:08:41.857Z,84.50
2022-09-23T03:11:09.882Z,84.40
2022-09-23T03:13:46.923Z,84.50
2022-09-23T03:16:27.990Z,84.40
2022-09-23T03:18:57.024Z,84.40
2022-09-23T03:21:27.881Z,84.40
2022-09-23T03:23:56.405Z,84.40
2022-09-23T03:26:33.711Z,84.40
2022-09-23T03:29:02.509Z,84.30
2022-09-23T03:31:29.264Z,84.30
2022-09-23T03:33:57.424Z,84.30
2022-09-23T03:36:48.698Z,84.20
2022-09-23T03:39:20.322Z,84.10
2022-09-23T03:41:50.181Z,84.00
2022-09-23T03:44:17.096Z,83.90
2022-09-23T03:46:48.912Z,83.80
2022-09-23T03:49:16.544Z,83.60
2022-09-23T03:51:44.678Z,83.60
2022-09-23T03:54:11.416Z,83.60
2022-09-23T03:56:37.384Z,83.60
2022-09-23T03:59:03.398Z,83.50
2022-09-23T04:01:29.362Z,83.60
2022-09-23T04:03:55.302Z,83.50
2022-09-23T04:06:21.757Z,83.50
2022-09-23T04:08:48.201Z,83.50
2022-09-23T04:11:14.197Z,83.40
2022-09-23T04:13:40.194Z,83.20
2022-09-23T04:16:06.225Z,83.10
2022-09-23T04:18:32.368Z,83.20
2022-09-23T04:20:59.083Z,83.10
2022-09-23T04:23:26.176Z,83.00
2022-09-23T04:25:53.011Z,83.00
2022-09-23T04:28:19.686Z,82.80
2022-09-23T04:30:46.566Z,82.60
2022-09-23T04:33:13.228Z,82.60
2022-09-23T04:35:40.465Z,82.40
2022-09-23T04:38:06.801Z,82.20
2022-09-23T04:40:33.459Z,82.10
2022-09-23T04:42:59.658Z,82.00
2022-09-23T04:45:29.525Z,81.90
2022-09-23T04:47:57.819Z,81.70
2022-09-23T04:50:26.785Z,81.50
2022-09-23T04:52:53.351Z,81.50
2022-09-23T04:55:19.528Z,81.30
2022-09-23T04:57:45.547Z,81.20
2022-09-23T05:00:11.803Z,81.10
2022-09-23T05:02:44.885Z,81.00
2022-09-23T05:05:11.045Z,81.00
2022-09-23T05:07:37.111Z,80.90
2022-09-23T05:10:03.186Z,80.80
2022-09-23T05:12:29.157Z,80.80
2022-09-23T05:14:55.589Z,80.60
2022-09-23T05:17:21.640Z,80.60
2022-09-23T05:19:47.655Z,80.60
2022-09-23T05:22:13.656Z,80.60
2022-09-23T05:24:39.699Z,80.60
2022-09-23T05:27:07.268Z,80.50
2022-09-23T05:29:34.308Z,80.50
2022-09-23T05:32:01.096Z,80.40
2022-09-23T05:34:27.925Z,80.30
2022-09-23T05:36:53.877Z,80.20
2022-09-23T05:39:19.877Z,80.20
2022-09-23T05:41:45.889Z,80.10
2022-09-23T05:44:11.900Z,80.10
2022-09-23T05:46:37.901Z,79.90
2022-09-23T05:49:04.782Z,79.70
2022-09-23T05:51:32.008Z,79.70
2022-09-23T05:53:58.900Z,79.50
2022-09-23T05:56:26.182Z,79.30
2022-09-23T05:58:53.157Z,79.30
2022-09-23T06:01:20.864Z,79.10
2022-09-23T06:03:47.592Z,79.10
2022-09-23T06:06:14.105Z,79.00
2022-09-23T06:08:40.420Z,78.90
2022-09-23T06:11:07.387Z,78.80
2022-09-23T06:13:37.508Z,78.70
2022-09-23T06:16:07.315Z,78.60
2022-09-23T06:18:33.837Z,78.50
2022-09-23T06:21:00.769Z,78.30
2022-09-23T06:23:26.830Z,78.20
2022-09-23T06:25:53.378Z,78.10
2022-09-23T06:28:19.680Z,78.00
2022-09-23T06:30:45.651Z,77.90
2022-09-23T06:33:11.757Z,77.80
2022-09-23T06:35:37.769Z,77.80
2022-09-23T06:38:04.392Z,77.70
2022-09-23T06:40:30.547Z,77.70
2022-09-23T06:42:58.086Z,77.50
2022-09-23T06:45:24.195Z,77.30
2022-09-23T06:47:55.685Z,77.10
2022-09-23T06:50:23.377Z,77.00
2022-09-23T06:52:56.320Z,76.90
2022-09-23T06:55:23.981Z,76.70
2022-09-23T06:57:50.242Z,76.50
2022-09-23T07:00:16.212Z,76.40
2022-09-23T07:02:42.354Z,76.20
2022-09-23T07:05:09.098Z,76.10
2022-09-23T07:07:38.913Z,76.10
2022-09-23T07:10:05.652Z,75.90
2022-09-23T07:12:32.372Z,75.70
2022-09-23T07:14:58.546Z,75.40
2022-09-23T07:17:25.059Z,75.40
2022-09-23T07:19:51.597Z,75.30
2022-09-23T07:22:17.985Z,75.20
2022-09-23T07:24:45.977Z,74.80
2022-09-23T07:27:15.900Z,74.70
2022-09-23T07:29:48.892Z,74.50
2022-09-23T07:32:15.945Z,74.30
2022-09-23T07:34:42.589Z,74.10
2022-09-23T07:37:08.624Z,74.00
2022-09-23T07:39:36.020Z,73.70
2022-09-23T07:42:04.475Z,73.40
2022-09-23T07:44:31.568Z,73.20
2022-09-23T07:46:58.092Z,73.00
2022-09-23T07:49:24.312Z,72.90
2022-09-23T07:51:50.707Z,72.50
2022-09-23T07:54:17.658Z,72.10
2022-09-23T07:56:43.650Z,71.60
2022-09-23T07:59:14.637Z,71.00
2022-09-23T08:01:43.468Z,70.50
2022-09-23T08:04:20.350Z,70.10
2022-09-23T08:06:47.839Z,69.00
2022-09-23T08:09:14.192Z,68.30
2022-09-23T08:11:41.184Z,68.50
2022-09-23T08:14:07.991Z,68.70
2022-09-23T08:16:34.974Z,67.80
2022-09-23T08:19:01.628Z,68.30
2022-09-23T08:21:27.661Z,68.30
2022-09-23T08:23:53.651Z,69.00
2022-09-23T08:26:22.080Z,68.30
2022-09-23T08:28:49.186Z,68.80
2022-09-23T08:31:15.355Z,67.20
2022-09-23T08:33:41.460Z,67.10
2022-09-23T08:36:07.680Z,66.50
2022-09-23T08:38:33.699Z,65.90
2022-09-23T08:41:16.749Z,66.10
2022-09-23T08:43:46.733Z,66.60
2022-09-23T08:46:16.298Z,65.70
2022-09-23T08:48:43.633Z,65.50
2022-09-23T08:51:20.596Z,65.00
2022-09-23T08:53:47.176Z,64.30
2022-09-23T08:56:18.695Z,64.20
2022-09-23T08:59:00.012Z,63.70
2022-09-23T09:01:30.279Z,63.80
2022-09-23T09:04:00.636Z,64.00
2022-09-23T09:06:51.886Z,62.60
2022-09-23T09:09:35.288Z,63.00
2022-09-23T09:12:10.941Z,62.30
2022-09-23T09:14:47.022Z,62.40
2022-09-23T09:17:17.249Z,62.20
2022-09-23T09:19:43.206Z,61.50
2022-09-23T09:22:19.128Z,60.80
2022-09-23T09:24:47.870Z,60.60
2022-09-23T09:27:13.956Z,59.90
2022-09-23T09:29:46.178Z,59.30
2022-09-23T09:32:13.293Z,59.30
2022-09-23T09:34:43.208Z,59.10
2022-09-23T09:37:12.163Z,59.10
2022-09-23T09:39:38.087Z,59.20
2022-09-23T09:42:05.308Z,59.00
2022-09-23T09:44:50.306Z,58.60
2022-09-23T09:47:27.734Z,58.80
2022-09-23T09:50:00.699Z,59.10
2022-09-23T09:52:31.074Z,59.20
2022-09-23T09:55:13.346Z,58.80
2022-09-23T09:57:43.961Z,59.00
2022-09-23T10:00:34.777Z,58.80
2022-09-23T10:03:02.326Z,58.00
2022-09-23T10:05:32.953Z,57.70
2022-09-23T10:08:17.793Z,57.20
2022-09-23T10:11:04.191Z,56.30
2022-09-23T10:13:31.109Z,56.40
2022-09-23T10:15:58.132Z,56.20
2022-09-23T10:18:24.803Z,55.60
2022-09-23T10:20:51.708Z,55.70
2022-09-23T10:23:21.777Z,55.50
2022-09-23T10:26:00.013Z,54.60
2022-09-23T10:28:38.697Z,54.10
2022-09-23T10:31:06.221Z,54.20
2022-09-23T10:33:32.327Z,54.40
2022-09-23T10:35:58.373Z,54.10
2022-09-23T10:38:24.621Z,53.60
2022-09-23T10:43:58.707Z,54.10
2022-09-23T10:46:38.273Z,54.20
2022-09-23T10:49:33.091Z,54.30
2022-09-23T10:52:14.780Z,54.50
2022-09-23T10:54:44.598Z,54.60
2022-09-23T10:57:39.847Z,54.60
2022-09-23T11:00:09.969Z,54.90
2022-09-23T11:02:55.645Z,54.90
2022-09-23T11:05:41.660Z,55.10
2022-09-23T11:08:17.649Z,55.10
2022-09-23T11:11:03.564Z,55.90
2022-09-23T11:13:29.624Z,55.60
2022-09-23T11:15:58.629Z,55.70
2022-09-23T11:18:43.726Z,55.90
2022-09-23T11:21:20.408Z,55.80
2022-09-23T11:23:50.654Z,55.70
2022-09-23T11:26:32.956Z,55.80
2022-09-23T11:29:11.589Z,55.80
2022-09-23T11:31:40.909Z,55.80
2022-09-23T11:34:25.798Z,55.80
2022-09-23T11:36:55.034Z,55.60
2022-09-23T11:39:27.615Z,55.40
2022-09-23T11:41:55.116Z,55.10
2022-09-23T11:44:29.424Z,54.80
2022-09-23T11:46:58.988Z,54.80
2022-09-23T11:49:27.258Z,53.80
2022-09-23T11:51:53.336Z,53.90
2022-09-23T11:54:22.162Z,53.90
2022-09-23T11:56:56.623Z,53.70
2022-09-23T11:59:41.331Z,53.80
2022-09-23T12:02:20.292Z,53.80
2022-09-23T12:05:02.965Z,53.80
2022-09-23T12:07:41.828Z,53.80
2022-09-23T12:10:07.974Z,53.80
2022-09-23T12:12:41.022Z,53.70
2022-09-23T12:15:10.361Z,53.40
2022-09-23T12:17:42.638Z,53.70
2022-09-23T12:20:18.067Z,53.40
2022-09-23T12:22:50.484Z,53.50
2022-09-23T12:25:46.321Z,53.60
2022-09-23T12:28:22.703Z,53.70
2022-09-23T12:30:49.985Z,53.80
2022-09-23T12:33:15.984Z,54.00
2022-09-23T12:35:42.360Z,54.00
2022-09-23T12:38:12.533Z,54.30
2022-09-23T12:40:41.233Z,54.40
2022-09-23T12:43:15.275Z,54.20
2022-09-23T12:45:41.811Z,54.20
2022-09-23T12:48:17.053Z,54.20
2022-09-23T12:51:01.846Z,54.10
2022-09-23T12:53:34.312Z,54.00
2022-09-23T12:56:01.606Z,54.00
2022-09-23T12:58:56.984Z,53.80
2022-09-23T13:01:25.781Z,53.70
2022-09-23T13:04:14.996Z,53.60
2022-09-23T13:06:44.186Z,53.60
2022-09-23T13:09:30.686Z,53.30
2022-09-23T13:12:00.899Z,53.40
2022-09-23T13:14:28.164Z,53.30
2022-09-23T13:16:56.523Z,53.30
2022-09-23T13:19:25.998Z,53.40
2022-09-23T13:22:08.835Z,53.40
2022-09-23T13:24:36.771Z,53.60
2022-09-23T13:27:07.851Z,53.50
2022-09-23T13:29:39.852Z,53.50
2022-09-23T13:32:12.442Z,53.50
2022-09-23T13:34:38.930Z,53.50
2022-09-23T13:37:22.052Z,53.60
2022-09-23T13:39:49.285Z,53.70
2022-09-23T13:42:34.725Z,53.70
2022-09-23T13:45:01.219Z,53.70
2022-09-23T13:47:28.933Z,53.70
2022-09-23T13:49:55.191Z,53.60
2022-09-23T13:52:24.441Z,53.60
2022-09-23T13:54:50.750Z,53.20
2022-09-23T13:57:31.096Z,53.00
2022-09-23T14:00:01.003Z,52.90
2022-09-23T14:02:28.228Z,53.00
2022-09-23T14:05:00.519Z,52.90
2022-09-23T14:07:26.578Z,53.00
2022-09-23T14:09:54.796Z,53.20
2022-09-23T14:12:23.897Z,53.20
2022-09-23T14:14:51.180Z,53.40
2022-09-23T14:17:18.426Z,53.50
2022-09-23T14:19:44.855Z,53.50
2022-09-23T14:22:24.923Z,53.50
2022-09-23T14:24:51.665Z,53.70
2022-09-23T14:27:28.189Z,53.70
2022-09-23T14:29:54.739Z,53.80
2022-09-23T14:32:23.672Z,54.10
2022-09-23T14:35:04.278Z,54.20
2022-09-23T14:37:58.936Z,54.30
2022-09-23T14:40:29.592Z,54.50
2022-09-23T14:43:02.109Z,54.60
2022-09-23T14:45:33.931Z,55.00
2022-09-23T14:48:20.340Z,55.20
2022-09-23T14:50:51.646Z,55.40
2022-09-23T14:53:23.701Z,55.50
2022-09-23T14:55:53.374Z,55.70
2022-09-23T14:58:22.333Z,56.10
2022-09-23T15:00:56.078Z,56.30
2022-09-23T15:03:22.364Z,56.40
2022-09-23T15:05:57.249Z,56.60
2022-09-23T15:08:25.611Z,56.70
2022-09-23T15:10:51.885Z,56.90
2022-09-23T15:13:23.069Z,57.30
2022-09-23T15:15:52.360Z,57.40
2022-09-23T15:18:22.556Z,57.50
2022-09-23T15:20:55.102Z,57.70
2022-09-23T15:23:36.522Z,57.70
2022-09-23T15:26:06.572Z,57.80
2022-09-23T15:28:33.086Z,57.90
2022-09-23T15:30:59.316Z,58.00
2022-09-23T15:33:28.149Z,58.30
2022-09-23T15:35:54.713Z,58.40
2022-09-23T15:38:21.316Z,58.60
2022-09-23T15:40:48.551Z,58.70
2022-09-23T15:43:22.841Z,58.90
2022-09-23T15:45:52.144Z,59.10
2022-09-23T15:48:21.999Z,59.30
2022-09-23T15:50:49.764Z,59.40
2022-09-23T15:53:20.912Z,59.50
2022-09-23T15:55:47.657Z,59.60
2022-09-23T15:58:13.725Z,59.90
2022-09-23T16:00:39.790Z,60.00
2022-09-23T16:03:06.047Z,60.30
2022-09-23T16:05:37.348Z,60.50
2022-09-23T16:08:08.694Z,60.80
2022-09-23T16:10:35.868Z,61.00
2022-09-23T16:13:05.202Z,61.30
2022-09-23T16:15:31.992Z,61.50
2022-09-23T16:18:00.260Z,61.70
2022-09-23T16:20:32.277Z,61.90
2022-09-23T16:23:08.921Z,62.00
2022-09-23T16:25:37.818Z,62.20
2022-09-23T16:28:05.297Z,62.50
2022-09-23T16:30:33.312Z,63.00
2022-09-23T16:33:00.358Z,63.20
2022-09-23T16:35:26.592Z,63.60
2022-09-23T16:37:52.854Z,64.50
2022-09-23T16:40:19.906Z,64.30
2022-09-23T16:42:49.857Z,64.50
2022-09-23T16:45:17.303Z,64.90
2022-09-23T16:47:44.173Z,65.10
2022-09-23T16:50:12.391Z,65.30
2022-09-23T16:52:39.078Z,65.50
2022-09-23T16:55:05.374Z,65.80
2022-09-23T16:57:31.419Z,65.90
2022-09-23T17:00:16.472Z,66.10
2022-09-23T17:03:06.139Z,66.30
2022-09-23T17:05:32.160Z,66.50
2022-09-23T17:08:01.039Z,67.00
2022-09-23T17:10:29.131Z,67.10
2022-09-23T17:12:55.271Z,67.50
2022-09-23T17:15:22.108Z,67.80
2022-09-23T17:17:48.560Z,68.30
2022-09-23T17:20:14.548Z,68.70
2022-09-23T17:22:41.997Z,68.80
2022-09-23T17:25:08.248Z,68.90
2022-09-23T17:27:34.693Z,69.20
2022-09-23T17:30:02.029Z,69.30
2022-09-23T17:32:28.252Z,69.60
2022-09-23T17:34:54.249Z,69.70
2022-09-23T17:37:20.365Z,69.80
2022-09-23T17:39:46.327Z,70.00
2022-09-23T17:42:15.720Z,70.10
2022-09-23T17:44:41.965Z,70.30
2022-09-23T17:47:08.356Z,70.40
2022-09-23T17:49:34.675Z,70.80
2022-09-23T17:52:05.710Z,71.00
2022-09-23T17:54:34.797Z,71.20
2022-09-23T17:57:01.170Z,71.30
2022-09-23T17:59:28.768Z,71.50
2022-09-23T18:01:54.849Z,71.90
2022-09-23T18:04:21.148Z,72.10
2022-09-23T18:06:48.554Z,72.20
2022-09-23T18:09:15.859Z,72.60
2022-09-23T18:11:46.169Z,72.50
2022-09-23T18:14:18.037Z,72.70
2022-09-23T18:16:45.550Z,72.90
2022-09-23T18:19:13.686Z,73.00
2022-09-23T18:21:41.005Z,73.30
2022-09-23T18:24:30.760Z,73.40
2022-09-23T18:26:55.723Z,73.50
2022-09-23T18:29:21.771Z,73.60
2022-09-23T18:31:50.283Z,73.70
2022-09-23T18:34:16.574Z,73.80
2022-09-23T18:36:42.869Z,74.00
2022-09-23T18:39:08.953Z,74.10
2022-09-23T18:41:34.924Z,74.30
2022-09-23T18:44:02.971Z,74.40
2022-09-23T18:46:29.695Z,74.40
2022-09-23T18:49:14.502Z,74.60
2022-09-23T18:52:07.001Z,74.70
2022-09-23T18:54:33.005Z,74.80
2022-09-23T18:56:59.458Z,75.00
2022-09-23T18:59:29.138Z,75.10
2022-09-23T19:01:55.841Z,75.20
2022-09-23T19:04:22.984Z,75.20
2022-09-23T19:06:49.270Z,75.90
2022-09-23T19:09:15.806Z,75.40
2022-09-23T19:11:42.332Z,75.50
2022-09-23T19:14:11.761Z,75.40
2022-09-23T19:16:39.398Z,75.40
2022-09-23T19:19:05.761Z,75.60
2022-09-23T19:21:33.039Z,75.70
2022-09-23T19:24:03.022Z,75.70
2022-09-23T19:26:33.937Z,75.70
2022-09-23T19:29:01.726Z,75.80
2022-09-23T19:31:29.335Z,75.90
2022-09-23T19:33:56.528Z,76.00
2022-09-23T19:36:24.104Z,76.30
2022-09-23T19:38:52.823Z,76.50
2022-09-23T19:41:19.680Z,76.60
2022-09-23T19:43:45.668Z,76.80
2022-09-23T19:46:11.924Z,76.90
2022-09-23T19:48:37.980Z,76.70
2022-09-23T19:51:06.748Z,76.80
2022-09-23T19:53:32.784Z,76.90
2022-09-23T19:56:02.323Z,77.00
2022-09-23T19:58:28.672Z,77.70
2022-09-23T20:00:54.703Z,77.10
2022-09-23T20:03:20.815Z,77.30
2022-09-23T20:05:53.900Z,77.50
2022-09-23T20:08:19.904Z,77.70
2022-09-23T20:10:47.478Z,77.80
2022-09-23T20:13:14.071Z,77.90
2022-09-23T20:15:40.306Z,77.90
2022-09-23T20:18:09.444Z,78.10
2022-09-23T20:20:36.064Z,78.30
2022-09-23T20:23:04.425Z,78.30
2022-09-23T20:25:51.474Z,78.30
2022-09-23T20:28:21.057Z,78.30
2022-09-23T20:30:48.423Z,78.30
2022-09-23T20:33:14.855Z,78.40
2022-09-23T20:35:43.408Z,78.40
2022-09-23T20:38:09.884Z,78.30
2022-09-23T20:40:38.308Z,78.90
2022-09-23T20:43:05.337Z,78.50
2022-09-23T20:45:31.786Z,78.50
2022-09-23T20:47:59.535Z,78.50
2022-09-23T20:50:25.749Z,78.60
2022-09-23T20:52:52.526Z,78.70
2022-09-23T20:55:18.605Z,78.70
2022-09-23T20:57:46.607Z,78.90
2022-09-23T21:00:12.961Z,78.90
2022-09-23T21:02:39.039Z,78.80
2022-09-23T21:05:05.446Z,78.80
2022-09-23T21:07:31.758Z,79.00
2022-09-23T21:10:03.661Z,79.10
2022-09-23T21:12:31.048Z,79.00
2022-09-23T21:14:57.140Z,79.10
2022-09-23T21:17:23.205Z,79.20
2022-09-23T21:19:49.368Z,79.30
2022-09-23T21:22:16.038Z,79.20
2022-09-23T21:27:29.904Z,79.30
2022-09-23T21:29:55.868Z,79.30
2022-09-23T21:32:24.544Z,79.40
2022-09-23T21:34:52.456Z,79.50
2022-09-23T21:37:18.615Z,79.50
2022-09-23T21:40:06.520Z,79.60
2022-09-23T21:42:33.053Z,79.70
2022-09-23T21:45:00.070Z,79.70
2022-09-23T21:47:26.882Z,79.80
2022-09-23T21:49:53.485Z,79.90
2022-09-23T21:52:19.703Z,80.00
2022-09-23T21:54:45.830Z,80.10
2022-09-23T21:57:13.220Z,80.20
2022-09-23T21:59:39.930Z,80.20
2022-09-23T22:02:05.969Z,80.20
2022-09-23T22:04:33.762Z,80.40
2022-09-23T22:07:00.113Z,80.40
2022-09-23T22:09:26.163Z,80.40
2022-09-23T22:12:04.879Z,80.60
2022-09-23T22:14:31.153Z,80.60
2022-09-23T22:16:58.598Z,80.40
2022-09-23T22:19:44.161Z,80.40
2022-09-23T22:22:12.993Z,80.70
2022-09-23T22:24:42.536Z,81.00
2022-09-23T22:27:09.313Z,80.90
2022-09-23T22:29:54.182Z,81.00
2022-09-23T22:32:35.289Z,81.00
2022-09-23T22:35:01.279Z,81.10
2022-09-23T22:37:35.224Z,80.90
2022-09-23T22:40:06.001Z,80.90
2022-09-23T22:42:32.293Z,81.00
2022-09-23T22:44:58.331Z,81.10
2022-09-23T22:47:24.358Z,81.10
2022-09-23T22:49:53.815Z,81.40
2022-09-23T22:52:23.779Z,81.40
2022-09-23T22:54:50.741Z,81.60
2022-09-23T22:57:16.773Z,81.70
2022-09-23T22:59:47.246Z,81.70
2022-09-23T23:02:17.686Z,81.70
2022-09-23T23:04:45.339Z,81.70
2022-09-23T23:07:20.858Z,81.70
2022-09-23T23:09:50.615Z,82.00
2022-09-23T23:12:18.299Z,82.00
2022-09-23T23:14:44.605Z,82.00
2022-09-23T23:17:10.773Z,82.10
2022-09-23T23:19:37.106Z,82.10
2022-09-23T23:22:04.273Z,82.40
2022-09-23T23:24:30.472Z,82.40
2022-09-23T23:26:56.776Z,82.40
2022-09-23T23:29:22.969Z,82.40
2022-09-23T23:31:49.416Z,82.30
2022-09-23T23:34:16.685Z,82.40
2022-09-23T23:36:43.250Z,82.40
2022-09-23T23:39:10.261Z,82.30
2022-09-23T23:41:37.213Z,82.30
2022-09-23T23:44:03.229Z,82.70
2022-09-23T23:46:30.249Z,83.40
2022-09-23T23:48:56.902Z,83.00
2022-09-23T23:51:25.228Z,83.10
2022-09-23T23:53:53.202Z,83.00
2022-09-23T23:56:20.202Z,82.90
2022-09-23T23:58:46.236Z,82.90
